This is the latest recevied weather packets stored in our database for station/object K2ATL. If no packets are shown the sender has not sent any weather packets the latest 10 day(s).
| Time | Temp. | Humidity | Pressure | Rain* | Wind** | Luminosity | Snow |
|---|---|---|---|---|---|---|---|
| 1777637607 | 10° C | 73% | 1098.4 hPa | 0 mm | - | 85 W/m² | - |
| 1777637304 | 10° C | 73% | 1098.4 hPa | 0 mm | - | 78 W/m² | - |
| 1777637001 | 10° C | 72% | 1098.5 hPa | 0 mm | - | 78 W/m² | - |
| 1777636696 | 10° C | 71% | 1098.3 hPa | 0 mm | - | 80 W/m² | - |
| 1777636393 | 10° C | 72% | 1098.3 hPa | 0 mm | - | 65 W/m² | - |
| 1777636089 | 10.56° C | 70% | 1098.1 hPa | 0 mm | - | 53 W/m² | - |
| 1777635784 | 10.56° C | 67% | 1098 hPa | 0 mm | - | 65 W/m² | - |
| 1777635481 | 10.56° C | 70% | 1098.1 hPa | 0 mm | - | 67 W/m² | - |
| 1777635178 | 11.11° C | 70% | 1097.9 hPa | 0 mm | - | 50 W/m² | - |
| 1777634874 | 10.56° C | 67% | 1097.8 hPa | 0 mm | - | 33 W/m² | - |
| 1777634571 | 10.56° C | 70% | 1097.7 hPa | 0 mm | - | 24 W/m² | - |
| 1777634268 | 11.67° C | 65% | 1097.7 hPa | 0 mm | - | 18 W/m² | - |
| 1777633965 | 11.11° C | 63% | 1097.8 hPa | 0 mm | - | 14 W/m² | - |
| 1777633662 | 11.67° C | 62% | 1097.7 hPa | 0 mm | - | 13 W/m² | - |
| 1777633360 | 11.67° C | 62% | 1097.8 hPa | 0 mm | - | 11 W/m² | - |
| 1777633057 | 10.56° C | 63% | 1097.7 hPa | 0 mm | - | 8 W/m² | - |
| 1777632753 | 9.44° C | 71% | 1097.5 hPa | 0 mm | - | 4 W/m² | - |
| 1777632449 | 9.44° C | 73% | 1097.4 hPa | 0 mm | - | 2 W/m² | - |
| 1777632147 | 9.44° C | 73% | 1097.6 hPa | 0 mm | - | 1 W/m² | - |
| 1777631844 | 10° C | 72% | 1097.5 hPa | 0 mm | - | 0 W/m² | - |
| 1777631543 | 10° C | 72% | 1097.5 hPa | 0 mm | - | 0 W/m² | - |
| 1777631239 | 10° C | 69% | 1097.7 hPa | 0 mm | - | 0 W/m² | - |
| 1777630936 | 10° C | 70% | 1097.7 hPa | 0 mm | - | 0 W/m² | - |
| 1777630632 | 10° C | 70% | 1097.8 hPa | 0 mm | - | 0 W/m² | - |
| 1777630329 | 10° C | 69% | 1097.7 hPa | 0 mm | - | 0 W/m² | - |
* Rain latest hour (hover to see other rain measurements)
** Current wind speed in m/s (hover to see current wind gust speed)